createdAt,value
2018-09-11T00:00:15.127Z,19.80
2018-09-11T00:02:44.481Z,19.90
2018-09-11T00:05:13.766Z,19.80
2018-09-11T00:07:42.983Z,19.80
2018-09-11T00:10:12.266Z,19.90
2018-09-11T00:12:41.540Z,20.00
2018-09-11T00:15:10.864Z,20.00
2018-09-11T00:17:40.150Z,20.00
2018-09-11T00:20:09.371Z,20.00
2018-09-11T00:22:38.616Z,20.00
2018-09-11T00:25:07.902Z,19.80
2018-09-11T00:27:37.125Z,19.90
2018-09-11T00:30:06.975Z,19.80
2018-09-11T00:32:36.234Z,19.60
2018-09-11T00:35:05.679Z,19.80
2018-09-11T00:37:34.924Z,19.60
2018-09-11T00:40:04.359Z,19.60
2018-09-11T00:42:33.675Z,19.50
2018-09-11T00:45:02.963Z,19.40
2018-09-11T00:47:32.270Z,19.50
2018-09-11T00:50:01.482Z,19.40
2018-09-11T00:52:32.770Z,19.40
2018-09-11T00:55:02.046Z,19.20
2018-09-11T00:57:31.330Z,19.30
2018-09-11T01:00:00.647Z,19.60
2018-09-11T01:02:30.292Z,19.40
2018-09-11T01:04:59.558Z,19.40
2018-09-11T01:07:28.851Z,19.60
2018-09-11T01:09:58.151Z,19.60
2018-09-11T01:12:27.458Z,19.40
2018-09-11T01:14:57.974Z,19.40
2018-09-11T01:17:27.290Z,19.30
2018-09-11T01:19:56.623Z,19.30
2018-09-11T01:22:26.397Z,19.30
2018-09-11T01:24:55.978Z,19.50
2018-09-11T01:27:27.379Z,19.40
2018-09-11T01:29:56.654Z,19.20
2018-09-11T01:32:26.250Z,19.40
2018-09-11T01:34:55.570Z,19.20
2018-09-11T01:37:24.750Z,19.20
2018-09-11T01:39:54.031Z,19.10
2018-09-11T01:42:33.063Z,18.90
2018-09-11T01:45:02.420Z,18.90
2018-09-11T01:47:31.698Z,18.70
2018-09-11T01:50:00.954Z,18.80
2018-09-11T01:52:30.228Z,19.00
2018-09-11T01:54:59.631Z,18.80
2018-09-11T01:57:28.884Z,18.80
2018-09-11T01:59:58.202Z,18.70
2018-09-11T02:02:27.595Z,18.80
2018-09-11T02:04:56.879Z,18.70
2018-09-11T02:07:26.227Z,18.70
2018-09-11T02:09:55.439Z,18.70
2018-09-11T02:12:24.719Z,18.90
2018-09-11T02:14:54.028Z,18.80
2018-09-11T02:17:23.301Z,18.70
2018-09-11T02:19:52.623Z,18.80
2018-09-11T02:22:21.922Z,18.60
2018-09-11T02:24:51.181Z,18.60
2018-09-11T02:27:20.502Z,18.50
2018-09-11T02:29:49.708Z,18.70
2018-09-11T02:32:18.929Z,18.70
2018-09-11T02:34:48.166Z,18.60
2018-09-11T02:37:17.501Z,18.70
2018-09-11T02:39:46.814Z,18.90
2018-09-11T02:42:16.102Z,18.80
2018-09-11T02:44:45.447Z,18.70
2018-09-11T02:47:14.798Z,18.50
2018-09-11T02:49:44.019Z,18.50
2018-09-11T02:52:13.318Z,18.50
2018-09-11T02:54:42.679Z,18.50
2018-09-11T02:57:11.919Z,18.40
2018-09-11T02:59:41.191Z,18.30
2018-09-11T03:02:10.496Z,18.50
2018-09-11T03:04:39.751Z,18.50
2018-09-11T03:07:09.071Z,18.20
2018-09-11T03:09:38.337Z,18.20
2018-09-11T03:12:07.723Z,18.30
2018-09-11T03:14:37.006Z,18.30
2018-09-11T03:17:06.353Z,17.90
2018-09-11T03:19:35.622Z,18.20
2018-09-11T03:22:04.934Z,18.00
2018-09-11T03:24:34.252Z,18.20
2018-09-11T03:27:04.628Z,18.00
2018-09-11T03:29:33.938Z,18.10
2018-09-11T03:32:03.226Z,18.20
2018-09-11T03:34:32.467Z,18.00
2018-09-11T03:37:01.715Z,18.20
2018-09-11T03:39:31.032Z,18.00
2018-09-11T03:42:00.342Z,18.00
2018-09-11T03:44:29.601Z,18.20
2018-09-11T03:46:58.982Z,18.30
2018-09-11T03:49:28.271Z,18.40
2018-09-11T03:51:57.529Z,18.30
2018-09-11T03:54:26.892Z,18.20
2018-09-11T03:56:56.284Z,18.00
2018-09-11T03:59:25.563Z,17.90
2018-09-11T04:01:54.850Z,18.20
2018-09-11T04:04:24.205Z,18.10
2018-09-11T04:06:53.482Z,18.20
2018-09-11T04:09:22.812Z,17.90
2018-09-11T04:11:54.274Z,17.90
2018-09-11T04:14:23.557Z,18.10
2018-09-11T04:16:52.788Z,17.90
2018-09-11T04:19:22.000Z,18.00
2018-09-11T04:21:51.280Z,17.80
2018-09-11T04:24:20.525Z,17.80
2018-09-11T04:26:49.789Z,17.70
2018-09-11T04:29:19.052Z,17.90
2018-09-11T04:31:48.336Z,17.70
2018-09-11T04:34:17.599Z,17.50
2018-09-11T04:36:46.840Z,17.50
2018-09-11T04:39:16.159Z,17.60
2018-09-11T04:41:45.432Z,17.50
2018-09-11T04:44:14.749Z,17.80
2018-09-11T04:46:43.967Z,17.80
2018-09-11T04:49:13.638Z,17.80
2018-09-11T04:51:43.015Z,17.90
2018-09-11T04:54:12.259Z,17.70
2018-09-11T04:56:41.506Z,17.70
2018-09-11T04:59:10.717Z,17.90
2018-09-11T05:01:40.008Z,17.80
2018-09-11T05:04:09.395Z,18.00
2018-09-11T05:06:38.667Z,17.90
2018-09-11T05:09:11.290Z,18.00
2018-09-11T05:11:40.826Z,18.00
2018-09-11T05:14:10.171Z,17.90
2018-09-11T05:16:39.967Z,18.10
2018-09-11T05:19:09.332Z,18.00
2018-09-11T05:21:38.556Z,17.90
2018-09-11T05:24:08.072Z,18.00
2018-09-11T05:26:37.476Z,18.00
2018-09-11T05:29:07.040Z,17.90
2018-09-11T05:31:36.370Z,17.90
2018-09-11T05:34:05.818Z,17.90
2018-09-11T05:36:35.209Z,18.00
2018-09-11T05:39:06.461Z,18.00
2018-09-11T05:41:35.783Z,18.00
2018-09-11T05:44:05.668Z,18.00
2018-09-11T05:46:35.202Z,17.90
2018-09-11T05:49:04.683Z,17.90
2018-09-11T05:51:33.973Z,17.80
2018-09-11T05:54:03.267Z,17.90
2018-09-11T05:56:32.613Z,17.90
2018-09-11T05:59:05.857Z,18.10
2018-09-11T06:01:35.251Z,18.10
2018-09-11T06:04:04.540Z,17.90
2018-09-11T06:06:33.799Z,18.10
2018-09-11T06:09:03.139Z,18.40
2018-09-11T06:11:32.447Z,18.40
2018-09-11T06:14:01.746Z,18.10
2018-09-11T06:16:31.008Z,18.10
2018-09-11T06:19:00.261Z,18.10
2018-09-11T06:21:31.607Z,18.00
2018-09-11T06:24:00.987Z,18.00
2018-09-11T06:26:30.313Z,18.20
2018-09-11T06:28:59.657Z,18.40
2018-09-11T06:31:29.649Z,18.70
2018-09-11T06:33:59.037Z,18.70
2018-09-11T06:36:28.318Z,18.70
2018-09-11T06:38:57.687Z,18.50
2018-09-11T06:41:27.143Z,18.50
2018-09-11T06:43:56.580Z,18.60
2018-09-11T06:46:25.902Z,18.60
2018-09-11T06:48:55.175Z,18.60
2018-09-11T06:51:24.500Z,18.50
2018-09-11T06:53:53.753Z,18.30
2018-09-11T06:56:24.116Z,18.40
2018-09-11T06:58:53.731Z,18.70
2018-09-11T07:01:22.923Z,18.70
2018-09-11T07:03:52.264Z,18.40
2018-09-11T07:06:21.571Z,18.60
2018-09-11T07:08:50.888Z,18.70
2018-09-11T07:11:29.029Z,19.00
2018-09-11T07:13:58.412Z,18.90
2018-09-11T07:16:27.695Z,19.20
2018-09-11T07:18:56.944Z,19.40
2018-09-11T07:21:26.268Z,19.70
2018-09-11T07:23:55.678Z,19.70
2018-09-11T07:26:24.938Z,19.50
2018-09-11T07:28:54.302Z,19.60
2018-09-11T07:31:23.569Z,19.60
2018-09-11T07:33:52.806Z,19.60
2018-09-11T07:36:22.097Z,19.50
2018-09-11T07:38:51.288Z,19.50
2018-09-11T07:41:21.678Z,19.30
2018-09-11T07:43:50.940Z,19.50
2018-09-11T07:46:20.170Z,19.30
2018-09-11T07:48:49.413Z,19.70
2018-09-11T07:51:18.846Z,19.30
2018-09-11T07:53:48.140Z,19.60
2018-09-11T07:56:17.781Z,20.00
2018-09-11T07:58:47.122Z,20.00
2018-09-11T08:01:16.363Z,19.90
2018-09-11T08:03:45.651Z,20.00
2018-09-11T08:06:14.972Z,20.00
2018-09-11T08:08:44.347Z,19.90
2018-09-11T08:11:13.739Z,20.20
2018-09-11T08:13:43.689Z,20.50
2018-09-11T08:16:12.990Z,20.50
2018-09-11T08:18:42.247Z,20.20
2018-09-11T08:21:11.539Z,20.40
2018-09-11T08:23:40.738Z,20.70
2018-09-11T08:26:09.994Z,20.80
2018-09-11T08:28:39.219Z,21.00
2018-09-11T08:31:08.540Z,20.90
2018-09-11T08:33:37.863Z,21.20
2018-09-11T08:36:07.171Z,21.30
2018-09-11T08:38:36.463Z,21.20
2018-09-11T08:41:05.916Z,21.30
2018-09-11T08:43:35.320Z,21.50
2018-09-11T08:46:04.731Z,21.40
2018-09-11T08:48:33.984Z,21.40
2018-09-11T08:51:03.281Z,21.70
2018-09-11T08:53:32.655Z,21.60
2018-09-11T08:56:01.903Z,21.30
2018-09-11T08:58:31.237Z,21.40
2018-09-11T09:01:00.437Z,21.50
2018-09-11T09:03:29.668Z,21.30
2018-09-11T09:05:59.238Z,21.10
2018-09-11T09:08:28.615Z,21.60
2018-09-11T09:10:57.890Z,21.50
2018-09-11T09:13:27.162Z,21.70
2018-09-11T09:15:56.467Z,21.90
2018-09-11T09:18:26.806Z,21.90
2018-09-11T09:20:56.054Z,22.10
2018-09-11T09:23:25.365Z,21.90
2018-09-11T09:25:54.685Z,22.10
2018-09-11T09:28:23.976Z,22.00
2018-09-11T09:30:53.237Z,22.20
2018-09-11T09:33:22.555Z,22.90
2018-09-11T09:35:55.288Z,22.90
2018-09-11T09:38:24.606Z,22.90
2018-09-11T09:40:53.838Z,23.20
2018-09-11T09:43:24.260Z,23.30
2018-09-11T09:45:53.506Z,23.00
2018-09-11T09:48:22.749Z,23.40
2018-09-11T09:50:52.194Z,23.30
2018-09-11T09:53:21.399Z,23.20
2018-09-11T09:55:50.639Z,22.90
2018-09-11T09:58:19.876Z,23.10
2018-09-11T10:00:54.388Z,23.40
2018-09-11T10:03:34.391Z,22.90
2018-09-11T10:06:03.792Z,22.80
2018-09-11T10:08:33.895Z,23.10
2018-09-11T10:11:03.227Z,22.20
2018-09-11T10:13:32.770Z,22.20
2018-09-11T10:16:02.078Z,22.90
2018-09-11T10:18:31.354Z,23.00
2018-09-11T10:21:00.603Z,23.30
2018-09-11T10:23:29.856Z,23.60
2018-09-11T10:25:59.174Z,23.50
2018-09-11T10:28:28.572Z,23.90
2018-09-11T10:30:57.860Z,23.90
2018-09-11T10:33:27.192Z,24.30
2018-09-11T10:35:56.509Z,24.40
2018-09-11T10:38:25.825Z,24.10
2018-09-11T10:40:55.182Z,23.80
2018-09-11T10:43:24.739Z,23.70
2018-09-11T10:45:54.306Z,24.10
2018-09-11T10:48:23.827Z,23.70
2018-09-11T10:50:53.529Z,24.30
2018-09-11T10:53:22.815Z,24.40
2018-09-11T10:55:52.260Z,24.80
2018-09-11T10:58:21.574Z,25.00
2018-09-11T11:00:50.807Z,24.80
2018-09-11T11:03:20.032Z,24.90
2018-09-11T11:05:49.291Z,24.80
2018-09-11T11:08:18.592Z,24.90
2018-09-11T11:10:47.936Z,25.00
2018-09-11T11:13:17.171Z,24.80
2018-09-11T11:15:46.551Z,25.00
2018-09-11T11:18:15.818Z,25.00
2018-09-11T11:20:45.039Z,25.20
2018-09-11T11:23:14.258Z,25.10
2018-09-11T11:25:43.631Z,25.00
2018-09-11T11:28:12.897Z,25.00
2018-09-11T11:30:42.521Z,25.00
2018-09-11T11:33:11.739Z,25.10
2018-09-11T11:35:40.923Z,25.10
2018-09-11T11:38:10.451Z,25.20
2018-09-11T11:40:39.714Z,25.20
2018-09-11T11:43:08.995Z,24.60
2018-09-11T11:45:38.343Z,24.60
2018-09-11T11:48:07.647Z,24.40
2018-09-11T11:50:36.908Z,24.40
2018-09-11T11:53:06.127Z,24.70
2018-09-11T11:55:35.427Z,24.90
2018-09-11T11:58:04.651Z,24.90
2018-09-11T12:00:34.057Z,25.00
2018-09-11T12:03:03.327Z,24.80
2018-09-11T12:05:32.707Z,25.00
2018-09-11T12:08:01.933Z,25.00
2018-09-11T12:10:31.230Z,25.00
2018-09-11T12:13:00.947Z,25.00
2018-09-11T12:15:30.286Z,25.10
2018-09-11T12:17:59.611Z,25.30
2018-09-11T12:20:28.931Z,25.20
2018-09-11T12:22:58.272Z,25.30
2018-09-11T12:25:27.581Z,25.40
2018-09-11T12:27:56.921Z,25.40
2018-09-11T12:30:26.174Z,25.50
2018-09-11T12:32:55.400Z,25.60
2018-09-11T12:35:25.547Z,25.50
2018-09-11T12:37:55.039Z,25.60
2018-09-11T12:40:25.327Z,25.60
2018-09-11T12:42:54.791Z,25.40
2018-09-11T12:45:24.191Z,25.50
2018-09-11T12:47:54.003Z,25.50
2018-09-11T12:50:22.759Z,25.50
2018-09-11T12:52:52.054Z,25.80
2018-09-11T12:55:21.261Z,25.90
2018-09-11T12:57:50.503Z,25.80
2018-09-11T13:00:19.814Z,25.80
2018-09-11T13:02:49.041Z,25.60
2018-09-11T13:05:18.403Z,25.70
2018-09-11T13:07:47.635Z,25.80
2018-09-11T13:10:16.883Z,25.90
2018-09-11T13:12:46.178Z,25.70
2018-09-11T13:15:15.433Z,25.90
2018-09-11T13:17:44.686Z,26.00
2018-09-11T13:20:13.927Z,25.90
2018-09-11T13:22:43.102Z,26.00
2018-09-11T13:25:12.559Z,26.00
2018-09-11T13:27:41.756Z,26.20
2018-09-11T13:30:11.132Z,26.50
2018-09-11T13:32:40.379Z,26.50
2018-09-11T13:35:09.554Z,26.70
2018-09-11T13:37:39.211Z,26.60
2018-09-11T13:40:08.480Z,26.70
2018-09-11T13:42:37.758Z,26.60
2018-09-11T13:45:08.125Z,26.60
2018-09-11T13:47:37.427Z,26.70
2018-09-11T13:50:06.768Z,26.70
2018-09-11T13:52:36.042Z,26.60
2018-09-11T13:55:05.307Z,26.70
2018-09-11T13:57:34.503Z,26.60
2018-09-11T14:00:03.778Z,26.70
2018-09-11T14:02:33.207Z,26.80
2018-09-11T14:05:03.251Z,26.80
2018-09-11T14:07:32.506Z,26.70
2018-09-11T14:10:01.921Z,26.50
2018-09-11T14:12:31.263Z,26.50
2018-09-11T14:15:00.586Z,26.70
2018-09-11T14:17:29.890Z,26.60
2018-09-11T14:19:59.092Z,26.60
2018-09-11T14:22:28.422Z,26.60
2018-09-11T14:24:57.742Z,26.50
2018-09-11T14:27:26.966Z,27.00
2018-09-11T14:29:56.270Z,26.80
2018-09-11T14:32:25.566Z,26.80
2018-09-11T14:34:54.953Z,26.80
2018-09-11T14:37:24.236Z,27.00
2018-09-11T14:39:53.504Z,26.90
2018-09-11T14:42:22.786Z,26.80
2018-09-11T14:44:52.060Z,26.90
2018-09-11T14:47:21.298Z,26.90
2018-09-11T14:49:50.596Z,27.10
2018-09-11T14:52:19.809Z,27.00
2018-09-11T14:54:49.093Z,27.00
2018-09-11T14:57:18.531Z,27.00
2018-09-11T14:59:47.807Z,26.90
2018-09-11T15:02:17.031Z,26.70
2018-09-11T15:04:46.271Z,26.60
2018-09-11T15:07:15.530Z,26.70
2018-09-11T15:09:44.771Z,26.70
2018-09-11T15:12:15.804Z,26.80
2018-09-11T15:14:45.063Z,26.60
2018-09-11T15:17:14.339Z,26.70
2018-09-11T15:19:43.668Z,26.80
2018-09-11T15:22:12.934Z,26.90
2018-09-11T15:24:42.113Z,26.90
2018-09-11T15:27:11.370Z,26.90
2018-09-11T15:29:40.634Z,27.00
2018-09-11T15:32:09.871Z,26.90
2018-09-11T15:34:39.210Z,27.00
2018-09-11T15:37:08.491Z,27.10
2018-09-11T15:39:37.762Z,26.90
2018-09-11T15:42:07.099Z,27.20
2018-09-11T15:44:36.480Z,27.10
2018-09-11T15:47:05.849Z,27.30
2018-09-11T15:49:35.164Z,27.50
2018-09-11T15:52:05.255Z,27.40
2018-09-11T15:54:34.673Z,27.60
2018-09-11T15:57:04.023Z,27.70
2018-09-11T15:59:33.243Z,27.50
2018-09-11T16:02:02.593Z,27.60
2018-09-11T16:04:31.926Z,27.60
2018-09-11T16:07:01.136Z,27.40
2018-09-11T16:09:30.602Z,27.10
2018-09-11T16:11:59.842Z,27.20
2018-09-11T16:14:29.115Z,26.90
2018-09-11T16:16:58.370Z,27.00
2018-09-11T16:19:27.718Z,26.90
2018-09-11T16:21:56.999Z,27.10
2018-09-11T16:24:26.266Z,26.80
2018-09-11T16:26:55.494Z,26.70
2018-09-11T16:29:24.775Z,26.70
2018-09-11T16:31:54.015Z,26.80
2018-09-11T16:34:23.283Z,26.70
2018-09-11T16:36:52.577Z,26.70
2018-09-11T16:39:21.879Z,26.60
2018-09-11T16:41:51.184Z,26.40
2018-09-11T16:44:20.465Z,26.50
2018-09-11T16:46:50.855Z,26.60
2018-09-11T16:49:20.119Z,26.60
2018-09-11T16:51:49.522Z,26.50
2018-09-11T16:54:18.838Z,26.50
2018-09-11T16:59:26.390Z,26.70
2018-09-11T17:01:55.623Z,26.70
2018-09-11T17:04:24.859Z,26.70
2018-09-11T17:06:54.399Z,26.60
2018-09-11T17:09:23.643Z,26.60
2018-09-11T17:11:52.875Z,26.50
2018-09-11T17:14:22.285Z,26.30
2018-09-11T17:16:53.618Z,26.10
2018-09-11T17:19:22.948Z,26.10
2018-09-11T17:21:52.162Z,26.10
2018-09-11T17:24:21.463Z,26.10
2018-09-11T17:26:51.130Z,26.10
2018-09-11T17:29:20.392Z,26.00
2018-09-11T17:31:49.643Z,26.00
2018-09-11T17:34:18.856Z,25.90
2018-09-11T17:36:48.108Z,26.10
2018-09-11T17:39:17.350Z,26.10
2018-09-11T17:41:46.546Z,26.00
2018-09-11T17:44:15.899Z,26.00
2018-09-11T17:46:46.187Z,26.00
2018-09-11T17:49:15.438Z,26.20
2018-09-11T17:51:44.807Z,26.10
2018-09-11T17:54:14.087Z,26.00
2018-09-11T17:56:43.325Z,26.20
2018-09-11T17:59:12.540Z,26.10
2018-09-11T18:01:42.173Z,26.00
2018-09-11T18:04:11.571Z,26.00
2018-09-11T18:06:40.850Z,26.00
2018-09-11T18:09:10.081Z,26.00
2018-09-11T18:11:39.303Z,26.10
2018-09-11T18:14:08.531Z,26.10
2018-09-11T18:16:37.774Z,26.00
2018-09-11T18:19:07.050Z,25.90
2018-09-11T18:21:36.428Z,26.00
2018-09-11T18:24:06.093Z,25.90
2018-09-11T18:26:43.676Z,26.00
2018-09-11T18:29:14.618Z,26.10
2018-09-11T18:31:54.038Z,26.00
2018-09-11T18:34:23.414Z,26.20
2018-09-11T18:36:53.235Z,26.20
2018-09-11T18:39:22.485Z,26.20
2018-09-11T18:41:51.725Z,26.20
2018-09-11T18:44:21.056Z,26.00
2018-09-11T18:46:50.331Z,26.00
2018-09-11T18:49:19.755Z,26.00
2018-09-11T18:51:49.046Z,25.80
2018-09-11T18:54:18.396Z,25.80
2018-09-11T18:56:47.641Z,25.90
2018-09-11T18:59:16.945Z,25.90
2018-09-11T19:01:46.183Z,25.90
2018-09-11T19:04:15.467Z,25.90
2018-09-11T19:06:45.045Z,26.00
2018-09-11T19:09:14.894Z,25.90
2018-09-11T19:11:45.756Z,25.90
2018-09-11T19:14:17.704Z,26.00
2018-09-11T19:16:47.076Z,25.80
2018-09-11T19:19:16.410Z,26.00
2018-09-11T19:21:45.790Z,25.90
2018-09-11T19:24:15.115Z,25.80
2018-09-11T19:26:44.494Z,25.70
2018-09-11T19:29:13.971Z,25.70
2018-09-11T19:31:45.769Z,25.70
2018-09-11T19:34:15.260Z,25.60
2018-09-11T19:36:46.523Z,25.60
2018-09-11T19:39:15.761Z,25.50
2018-09-11T19:41:45.195Z,25.50
2018-09-11T19:44:14.829Z,25.50
2018-09-11T19:46:44.108Z,25.50
2018-09-11T19:49:13.673Z,25.30
2018-09-11T19:51:43.021Z,25.40
2018-09-11T19:54:12.638Z,25.50
2018-09-11T19:56:42.020Z,25.50
2018-09-11T19:59:11.342Z,25.40
2018-09-11T20:01:44.608Z,25.40
2018-09-11T20:04:13.884Z,25.40
2018-09-11T20:06:43.155Z,25.30
2018-09-11T20:09:12.537Z,25.40
2018-09-11T20:11:41.911Z,25.30
2018-09-11T20:14:11.667Z,25.30
2018-09-11T20:16:40.975Z,25.20
2018-09-11T20:19:10.260Z,25.20
2018-09-11T20:21:39.566Z,25.10
2018-09-11T20:24:08.872Z,25.20
2018-09-11T20:26:38.233Z,25.20
2018-09-11T20:29:07.539Z,25.20
2018-09-11T20:31:36.804Z,25.20
2018-09-11T20:34:06.283Z,25.10
2018-09-11T20:36:35.670Z,25.00
2018-09-11T20:39:11.118Z,25.10
2018-09-11T20:41:42.508Z,25.10
2018-09-11T20:44:11.891Z,25.00
2018-09-11T20:46:41.148Z,25.00
2018-09-11T20:49:10.514Z,24.90
2018-09-11T20:51:39.815Z,24.60
2018-09-11T20:54:09.315Z,24.70
2018-09-11T20:56:38.718Z,24.70
2018-09-11T20:59:08.059Z,24.70
2018-09-11T21:01:37.351Z,24.60
2018-09-11T21:04:06.863Z,24.50
2018-09-11T21:06:36.287Z,24.40
2018-09-11T21:09:08.153Z,24.40
2018-09-11T21:11:37.658Z,24.50
2018-09-11T21:14:06.991Z,24.50
2018-09-11T21:16:37.484Z,24.30
2018-09-11T21:19:06.762Z,24.40
2018-09-11T21:21:36.269Z,24.40
2018-09-11T21:24:07.469Z,24.50
2018-09-11T21:26:37.914Z,24.30
2018-09-11T21:29:07.826Z,24.40
2018-09-11T21:31:37.319Z,24.40
2018-09-11T21:34:06.699Z,24.50
2018-09-11T21:36:36.023Z,24.50
2018-09-11T21:39:08.167Z,24.50
2018-09-11T21:41:37.622Z,24.50
2018-09-11T21:44:07.027Z,24.60
2018-09-11T21:46:36.444Z,24.60
2018-09-11T21:49:05.675Z,24.70
2018-09-11T21:51:36.259Z,24.60
2018-09-11T21:54:05.738Z,24.70
2018-09-11T21:56:35.028Z,24.60
2018-09-11T21:59:04.324Z,24.60
2018-09-11T22:01:38.975Z,24.60
2018-09-11T22:04:08.319Z,24.60
2018-09-11T22:06:37.601Z,24.60
2018-09-11T22:09:09.659Z,24.60
2018-09-11T22:11:39.216Z,24.40
2018-09-11T22:14:09.410Z,24.50
2018-09-11T22:16:39.754Z,24.40
2018-09-11T22:19:09.064Z,24.50
2018-09-11T22:21:38.334Z,24.50
2018-09-11T22:24:07.666Z,24.40
2018-09-11T22:26:36.986Z,24.40
2018-09-11T22:29:06.523Z,24.40
2018-09-11T22:31:35.715Z,24.40
2018-09-11T22:34:04.966Z,24.30
2018-09-11T22:36:34.253Z,24.40
2018-09-11T22:39:03.611Z,24.40
2018-09-11T22:41:32.946Z,24.40
2018-09-11T22:44:02.309Z,24.30
2018-09-11T22:46:31.595Z,24.40
2018-09-11T22:49:00.908Z,24.20
2018-09-11T22:51:30.542Z,24.20
2018-09-11T22:53:59.820Z,24.30
2018-09-11T22:56:29.091Z,24.40
2018-09-11T22:58:58.375Z,24.40
2018-09-11T23:01:27.721Z,24.30
2018-09-11T23:03:57.144Z,24.30
2018-09-11T23:06:26.495Z,24.10
2018-09-11T23:08:55.766Z,23.80
2018-09-11T23:11:25.127Z,23.90
2018-09-11T23:13:54.597Z,23.90
2018-09-11T23:16:23.863Z,23.90
2018-09-11T23:18:53.158Z,23.80
2018-09-11T23:21:22.468Z,23.80
2018-09-11T23:23:52.817Z,23.80
2018-09-11T23:26:22.171Z,23.90
2018-09-11T23:28:51.468Z,23.60
2018-09-11T23:31:20.778Z,23.70
2018-09-11T23:33:50.105Z,23.80
2018-09-11T23:36:19.483Z,23.80
2018-09-11T23:38:48.736Z,23.70
2018-09-11T23:41:18.044Z,23.60
2018-09-11T23:43:47.427Z,23.60
2018-09-11T23:46:16.671Z,23.60
2018-09-11T23:48:46.044Z,23.60
2018-09-11T23:51:15.611Z,23.50
2018-09-11T23:53:44.898Z,23.50
2018-09-11T23:56:14.088Z,23.20
2018-09-11T23:58:43.395Z,23.00
